createdAt,value
2022-08-03T00:00:58.481Z,55
2022-08-03T00:02:04.285Z,55
2022-08-03T00:03:10.417Z,55
2022-08-03T00:04:12.840Z,55
2022-08-03T00:05:14.954Z,55
2022-08-03T00:06:16.498Z,55
2022-08-03T00:07:18.391Z,55
2022-08-03T00:08:20.582Z,56
2022-08-03T00:09:22.372Z,56
2022-08-03T00:10:24.437Z,56
2022-08-03T00:11:25.707Z,56
2022-08-03T00:12:27.805Z,56
2022-08-03T00:13:29.588Z,56
2022-08-03T00:14:31.397Z,56
2022-08-03T00:15:32.937Z,56
2022-08-03T00:16:34.225Z,56
2022-08-03T00:17:55.068Z,56
2022-08-03T00:18:56.718Z,56
2022-08-03T00:19:57.991Z,56
2022-08-03T00:20:59.751Z,56
2022-08-03T00:22:01.037Z,56
2022-08-03T00:23:03.144Z,56
2022-08-03T00:24:07.848Z,56
2022-08-03T00:25:09.676Z,56
2022-08-03T00:26:10.673Z,56
2022-08-03T00:27:17.424Z,56
2022-08-03T00:28:22.943Z,56
2022-08-03T00:29:29.072Z,56
2022-08-03T00:30:32.206Z,56
2022-08-03T00:32:01.205Z,56
2022-08-03T00:33:08.444Z,56
2022-08-03T00:34:14.114Z,56
2022-08-03T00:35:51.733Z,56
2022-08-03T00:36:53.232Z,57
2022-08-03T00:37:55.339Z,56
2022-08-03T00:38:56.926Z,57
2022-08-03T00:40:06.253Z,57
2022-08-03T00:41:08.369Z,57
2022-08-03T00:42:10.173Z,57
2022-08-03T00:43:11.710Z,57
2022-08-03T00:44:12.690Z,57
2022-08-03T00:45:13.941Z,57
2022-08-03T00:46:22.899Z,57
2022-08-03T00:47:25.008Z,57
2022-08-03T00:48:34.990Z,57
2022-08-03T00:49:37.894Z,57
2022-08-03T00:50:39.500Z,57
2022-08-03T00:51:40.808Z,57
2022-08-03T00:52:42.105Z,57
2022-08-03T00:53:43.130Z,57
2022-08-03T00:54:45.132Z,57
2022-08-03T00:55:46.800Z,57
2022-08-03T00:57:01.510Z,57
2022-08-03T00:58:03.607Z,57
2022-08-03T00:59:04.830Z,57
2022-08-03T01:00:06.414Z,57
2022-08-03T01:01:08.972Z,57
2022-08-03T01:02:10.765Z,57
2022-08-03T01:03:11.751Z,57
2022-08-03T01:04:13.020Z,57
2022-08-03T01:05:14.303Z,57
2022-08-03T01:06:15.608Z,57
2022-08-03T01:07:17.127Z,57
2022-08-03T01:08:18.679Z,57
2022-08-03T01:09:19.694Z,57
2022-08-03T01:10:20.946Z,57
2022-08-03T01:11:22.864Z,57
2022-08-03T01:12:24.135Z,57
2022-08-03T01:14:21.092Z,57
2022-08-03T01:15:28.328Z,57
2022-08-03T01:16:37.835Z,57
2022-08-03T01:17:39.730Z,57
2022-08-03T01:18:42.795Z,57
2022-08-03T01:19:44.321Z,57
2022-08-03T01:20:46.668Z,57
2022-08-03T01:21:53.440Z,57
2022-08-03T01:22:56.292Z,57
2022-08-03T01:23:58.638Z,57
2022-08-03T01:25:01.026Z,57
2022-08-03T01:26:02.298Z,57
2022-08-03T01:27:04.082Z,57
2022-08-03T01:28:05.390Z,58
2022-08-03T01:29:06.682Z,58
2022-08-03T01:30:08.002Z,58
2022-08-03T01:31:09.002Z,58
2022-08-03T01:33:04.563Z,58
2022-08-03T01:34:15.808Z,58
2022-08-03T01:35:17.451Z,58
2022-08-03T01:36:21.888Z,58
2022-08-03T01:37:23.706Z,58
2022-08-03T01:38:25.541Z,58
2022-08-03T01:39:27.625Z,58
2022-08-03T01:40:29.449Z,58
2022-08-03T01:41:31.337Z,58
2022-08-03T01:42:32.658Z,58
2022-08-03T01:44:32.025Z,58
2022-08-03T01:45:35.479Z,58
2022-08-03T01:46:37.590Z,58
2022-08-03T01:47:40.338Z,58
2022-08-03T01:48:41.928Z,58
2022-08-03T01:49:43.513Z,58
2022-08-03T01:50:45.653Z,58
2022-08-03T01:52:06.398Z,58
2022-08-03T01:53:07.430Z,58
2022-08-03T01:54:09.021Z,58
2022-08-03T01:55:10.846Z,59
2022-08-03T01:56:12.429Z,59
2022-08-03T01:57:13.975Z,59
2022-08-03T01:58:15.776Z,59
2022-08-03T01:59:17.591Z,59
2022-08-03T02:00:21.168Z,59
2022-08-03T02:01:23.044Z,59
2022-08-03T02:02:37.384Z,59
2022-08-03T02:04:02.745Z,59
2022-08-03T02:05:04.291Z,59
2022-08-03T02:07:04.427Z,59
2022-08-03T02:08:08.109Z,59
2022-08-03T02:09:09.953Z,59
2022-08-03T02:10:11.203Z,59
2022-08-03T02:11:12.501Z,59
2022-08-03T02:12:16.188Z,59
2022-08-03T02:13:18.095Z,59
2022-08-03T02:14:20.501Z,59
2022-08-03T02:15:23.146Z,59
2022-08-03T02:16:24.944Z,59
2022-08-03T02:17:41.565Z,59
2022-08-03T02:18:44.652Z,59
2022-08-03T02:19:49.863Z,59
2022-08-03T02:20:52.785Z,59
2022-08-03T02:22:02.374Z,59
2022-08-03T02:23:05.307Z,59
2022-08-03T02:24:06.833Z,59
2022-08-03T02:25:08.353Z,59
2022-08-03T02:26:10.138Z,59
2022-08-03T02:27:11.127Z,59
2022-08-03T02:28:15.663Z,59
2022-08-03T02:29:16.913Z,59
2022-08-03T02:30:18.229Z,59
2022-08-03T02:31:19.828Z,59
2022-08-03T02:32:21.076Z,59
2022-08-03T02:33:23.712Z,59
2022-08-03T02:34:26.348Z,59
2022-08-03T02:35:28.180Z,59
2022-08-03T02:36:32.775Z,59
2022-08-03T02:37:34.314Z,59
2022-08-03T02:38:36.378Z,59
2022-08-03T02:39:37.943Z,59
2022-08-03T02:40:39.792Z,60
2022-08-03T02:41:41.864Z,60
2022-08-03T02:42:43.664Z,60
2022-08-03T02:44:08.098Z,60
2022-08-03T02:45:14.087Z,60
2022-08-03T02:46:15.422Z,60
2022-08-03T02:47:16.720Z,60
2022-08-03T02:48:17.997Z,60
2022-08-03T02:49:53.493Z,60
2022-08-03T02:50:54.584Z,60
2022-08-03T02:51:56.390Z,60
2022-08-03T02:52:57.972Z,60
2022-08-03T02:53:59.527Z,60
2022-08-03T02:55:00.524Z,60
2022-08-03T02:56:02.588Z,60
2022-08-03T02:57:04.452Z,60
2022-08-03T02:58:06.239Z,60
2022-08-03T02:59:07.885Z,60
2022-08-03T03:00:09.134Z,60
2022-08-03T03:01:10.734Z,60
2022-08-03T03:02:12.449Z,60
2022-08-03T03:03:14.792Z,60
2022-08-03T03:06:00.197Z,60
2022-08-03T03:07:09.846Z,60
2022-08-03T03:08:30.001Z,60
2022-08-03T03:09:44.163Z,60
2022-08-03T03:10:45.958Z,60
2022-08-03T03:11:47.537Z,60
2022-08-03T03:12:48.963Z,60
2022-08-03T03:13:50.825Z,60
2022-08-03T03:14:52.049Z,60
2022-08-03T03:15:53.701Z,60
2022-08-03T03:16:59.342Z,60
2022-08-03T03:18:00.688Z,61
2022-08-03T03:19:03.042Z,61
2022-08-03T03:20:04.035Z,61
2022-08-03T03:21:05.820Z,61
2022-08-03T03:22:07.370Z,61
2022-08-03T03:23:08.960Z,61
2022-08-03T03:24:11.024Z,61
2022-08-03T03:25:13.654Z,61
2022-08-03T03:26:14.919Z,61
2022-08-03T03:27:18.685Z,61
2022-08-03T03:28:24.722Z,61
2022-08-03T03:29:26.830Z,61
2022-08-03T03:30:28.102Z,61
2022-08-03T03:31:29.109Z,61
2022-08-03T03:32:32.930Z,61
2022-08-03T03:33:34.743Z,61
2022-08-03T03:34:36.479Z,61
2022-08-03T03:35:43.429Z,61
2022-08-03T03:36:46.382Z,61
2022-08-03T03:37:48.221Z,61
2022-08-03T03:38:54.352Z,61
2022-08-03T03:39:55.661Z,61
2022-08-03T03:40:57.168Z,61
2022-08-03T03:41:58.700Z,61
2022-08-03T03:43:00.783Z,61
2022-08-03T03:44:02.914Z,61
2022-08-03T03:45:04.197Z,61
2022-08-03T03:46:06.303Z,61
2022-08-03T03:47:08.380Z,62
2022-08-03T03:48:09.404Z,61
2022-08-03T03:49:11.878Z,61
2022-08-03T03:50:14.002Z,62
2022-08-03T03:51:15.275Z,62
2022-08-03T03:52:18.470Z,61
2022-08-03T03:53:20.058Z,62
2022-08-03T03:54:21.667Z,62
2022-08-03T03:55:26.890Z,61
2022-08-03T03:56:28.676Z,61
2022-08-03T03:57:30.739Z,61
2022-08-03T03:58:33.121Z,61
2022-08-03T03:59:37.584Z,61
2022-08-03T04:00:40.314Z,61
2022-08-03T04:01:42.202Z,61
2022-08-03T04:02:43.750Z,61
2022-08-03T04:03:45.540Z,61
2022-08-03T04:04:47.672Z,61
2022-08-03T04:05:49.739Z,62
2022-08-03T04:06:51.003Z,62
2022-08-03T04:07:52.794Z,62
2022-08-03T04:08:54.362Z,62
2022-08-03T04:10:15.064Z,62
2022-08-03T04:11:16.724Z,62
2022-08-03T04:12:18.678Z,62
2022-08-03T04:13:20.210Z,62
2022-08-03T04:14:22.287Z,62
2022-08-03T04:15:23.986Z,62
2022-08-03T04:16:25.530Z,62
2022-08-03T04:17:27.641Z,62
2022-08-03T04:18:31.184Z,61
2022-08-03T04:19:33.247Z,61
2022-08-03T04:20:35.372Z,61
2022-08-03T04:21:37.150Z,61
2022-08-03T04:22:38.379Z,61
2022-08-03T04:23:40.210Z,61
2022-08-03T04:24:41.797Z,61
2022-08-03T04:25:43.189Z,61
2022-08-03T04:26:44.203Z,61
2022-08-03T04:28:33.064Z,61
2022-08-03T04:29:34.862Z,61
2022-08-03T04:30:39.994Z,60
2022-08-03T04:31:41.252Z,60
2022-08-03T04:32:50.570Z,60
2022-08-03T04:33:51.836Z,60
2022-08-03T04:34:53.159Z,60
2022-08-03T04:36:04.329Z,60
2022-08-03T04:37:06.416Z,60
2022-08-03T04:38:09.848Z,60
2022-08-03T04:39:10.869Z,60
2022-08-03T04:40:11.858Z,60
2022-08-03T04:41:12.848Z,60
2022-08-03T04:42:14.413Z,60
2022-08-03T04:43:16.936Z,60
2022-08-03T04:44:18.204Z,60
2022-08-03T04:45:20.280Z,60
2022-08-03T04:46:21.264Z,60
2022-08-03T04:47:23.126Z,60
2022-08-03T04:48:24.714Z,59
2022-08-03T04:49:26.427Z,59
2022-08-03T04:50:28.216Z,60
2022-08-03T04:51:29.774Z,59
2022-08-03T04:52:31.328Z,59
2022-08-03T04:53:32.838Z,59
2022-08-03T04:54:35.208Z,59
2022-08-03T04:55:36.497Z,59
2022-08-03T04:56:38.258Z,59
2022-08-03T04:57:40.074Z,59
2022-08-03T04:58:42.203Z,59
2022-08-03T04:59:44.272Z,59
2022-08-03T05:00:45.911Z,59
2022-08-03T05:01:47.391Z,59
2022-08-03T05:02:49.036Z,59
2022-08-03T05:03:50.868Z,59
2022-08-03T05:04:52.130Z,59
2022-08-03T05:06:12.279Z,59
2022-08-03T05:07:26.185Z,59
2022-08-03T05:08:52.047Z,59
2022-08-03T05:10:16.222Z,59
2022-08-03T05:11:19.069Z,59
2022-08-03T05:12:21.720Z,59
2022-08-03T05:13:23.558Z,59
2022-08-03T05:14:29.728Z,59
2022-08-03T05:15:31.880Z,59
2022-08-03T05:16:33.427Z,59
2022-08-03T05:17:34.950Z,59
2022-08-03T05:18:36.541Z,59
2022-08-03T05:19:39.177Z,59
2022-08-03T05:20:40.521Z,59
2022-08-03T05:21:54.168Z,59
2022-08-03T05:22:56.238Z,59
2022-08-03T05:23:58.045Z,59
2022-08-03T05:24:59.614Z,58
2022-08-03T05:26:01.180Z,58
2022-08-03T05:27:02.728Z,58
2022-08-03T05:28:04.521Z,59
2022-08-03T05:29:05.848Z,59
2022-08-03T05:30:35.586Z,59
2022-08-03T05:31:36.642Z,59
2022-08-03T05:32:37.921Z,59
2022-08-03T05:33:39.740Z,59
2022-08-03T05:34:41.858Z,60
2022-08-03T05:36:05.260Z,60
2022-08-03T05:37:06.560Z,60
2022-08-03T05:38:10.968Z,60
2022-08-03T05:39:13.309Z,60
2022-08-03T05:40:14.929Z,60
2022-08-03T05:41:38.020Z,60
2022-08-03T05:42:40.420Z,60
2022-08-03T05:43:42.487Z,60
2022-08-03T05:44:44.372Z,60
2022-08-03T05:46:13.320Z,60
2022-08-03T05:47:14.947Z,60
2022-08-03T05:48:17.492Z,59
2022-08-03T05:49:19.359Z,59
2022-08-03T05:50:20.972Z,59
2022-08-03T05:51:22.858Z,59
2022-08-03T05:52:26.464Z,59
2022-08-03T05:53:28.479Z,59
2022-08-03T05:54:58.630Z,58
2022-08-03T05:56:17.770Z,59
2022-08-03T05:57:22.789Z,59
2022-08-03T05:58:33.940Z,58
2022-08-03T05:59:59.368Z,58
2022-08-03T06:01:01.462Z,58
2022-08-03T06:02:03.793Z,58
2022-08-03T06:03:05.614Z,58
2022-08-03T06:04:11.027Z,58
2022-08-03T06:05:19.650Z,58
2022-08-03T06:06:22.387Z,58
2022-08-03T06:07:25.322Z,57
2022-08-03T06:08:27.925Z,57
2022-08-03T06:10:39.506Z,57
2022-08-03T06:11:43.453Z,57
2022-08-03T06:12:48.160Z,57
2022-08-03T06:13:57.142Z,57
2022-08-03T06:15:02.599Z,57
2022-08-03T06:16:04.427Z,57
2022-08-03T06:17:05.991Z,57
2022-08-03T06:18:08.087Z,57
2022-08-03T06:19:09.921Z,57
2022-08-03T06:20:11.450Z,57
2022-08-03T06:21:18.229Z,57
2022-08-03T06:22:22.727Z,57
2022-08-03T06:23:56.202Z,56
2022-08-03T06:25:12.774Z,56
2022-08-03T06:26:18.601Z,56
2022-08-03T06:27:38.410Z,56
2022-08-03T06:28:56.042Z,56
2022-08-03T06:29:58.263Z,56
2022-08-03T06:30:59.846Z,56
2022-08-03T06:32:01.693Z,56
2022-08-03T06:33:02.958Z,56
2022-08-03T06:34:36.959Z,56
2022-08-03T06:35:45.834Z,56
2022-08-03T06:36:47.392Z,55
2022-08-03T06:37:48.445Z,55
2022-08-03T06:38:50.571Z,55
2022-08-03T06:39:52.205Z,54
2022-08-03T06:40:54.591Z,55
2022-08-03T06:41:55.829Z,54
2022-08-03T06:42:57.776Z,54
2022-08-03T06:44:05.525Z,54
2022-08-03T06:45:07.100Z,54
2022-08-03T06:46:08.103Z,54
2022-08-03T06:47:09.979Z,54
2022-08-03T06:48:11.240Z,53
2022-08-03T06:49:13.243Z,53
2022-08-03T06:50:27.177Z,53
2022-08-03T06:52:08.201Z,53
2022-08-03T06:53:24.166Z,53
2022-08-03T06:54:26.028Z,53
2022-08-03T06:55:45.887Z,53
2022-08-03T06:56:49.886Z,53
2022-08-03T06:58:03.240Z,53
2022-08-03T06:59:06.030Z,53
2022-08-03T07:00:15.350Z,53
2022-08-03T07:01:20.163Z,53
2022-08-03T07:02:22.579Z,52
2022-08-03T07:03:24.362Z,52
2022-08-03T07:04:28.229Z,52
2022-08-03T07:05:30.071Z,52
2022-08-03T07:06:31.650Z,52
2022-08-03T07:07:33.430Z,52
2022-08-03T07:08:35.945Z,52
2022-08-03T07:09:38.051Z,52
2022-08-03T07:10:40.131Z,52
2022-08-03T07:11:41.411Z,52
2022-08-03T07:12:58.112Z,52
2022-08-03T07:13:59.953Z,52
2022-08-03T07:15:04.513Z,52
2022-08-03T07:16:06.055Z,52
2022-08-03T07:17:12.711Z,51
2022-08-03T07:18:14.093Z,51
2022-08-03T07:19:15.358Z,51
2022-08-03T07:20:16.431Z,51
2022-08-03T07:21:17.764Z,51
2022-08-03T07:22:20.483Z,51
2022-08-03T07:23:22.060Z,51
2022-08-03T07:24:23.654Z,51
2022-08-03T07:25:25.606Z,51
2022-08-03T07:26:27.464Z,51
2022-08-03T07:27:29.231Z,51
2022-08-03T07:28:30.850Z,50
2022-08-03T07:29:35.412Z,50
2022-08-03T07:30:36.828Z,50
2022-08-03T07:31:38.629Z,50
2022-08-03T07:32:51.969Z,50
2022-08-03T07:33:53.464Z,50
2022-08-03T07:35:09.100Z,50
2022-08-03T07:36:27.241Z,50
2022-08-03T07:37:28.811Z,50
2022-08-03T07:38:31.166Z,50
2022-08-03T07:39:32.943Z,49
2022-08-03T07:40:34.786Z,50
2022-08-03T07:41:36.030Z,50
2022-08-03T07:42:37.597Z,50
2022-08-03T07:43:39.120Z,50
2022-08-03T07:44:40.669Z,50
2022-08-03T07:45:41.952Z,50
2022-08-03T07:46:43.778Z,49
2022-08-03T07:47:55.473Z,49
2022-08-03T07:48:57.834Z,49
2022-08-03T07:49:59.643Z,49
2022-08-03T07:51:00.639Z,49
2022-08-03T07:52:01.937Z,49
2022-08-03T07:53:03.831Z,49
2022-08-03T07:54:05.982Z,48
2022-08-03T07:55:07.867Z,48
2022-08-03T07:56:13.353Z,48
2022-08-03T07:57:14.521Z,48
2022-08-03T07:58:24.995Z,48
2022-08-03T07:59:26.353Z,48
2022-08-03T08:00:27.584Z,47
2022-08-03T08:01:29.648Z,47
2022-08-03T08:02:32.004Z,47
2022-08-03T08:03:54.631Z,47
2022-08-03T08:04:56.513Z,47
2022-08-03T08:05:58.383Z,47
2022-08-03T08:07:00.766Z,47
2022-08-03T08:08:02.558Z,47
2022-08-03T08:09:04.103Z,47
2022-08-03T08:10:05.971Z,47
2022-08-03T08:11:07.242Z,46
2022-08-03T08:12:18.450Z,46
2022-08-03T08:13:20.327Z,46
2022-08-03T08:14:21.395Z,45
2022-08-03T08:15:22.739Z,45
2022-08-03T08:16:23.764Z,45
2022-08-03T08:17:25.019Z,45
2022-08-03T08:18:26.034Z,45
2022-08-03T08:19:51.524Z,46
2022-08-03T08:20:54.407Z,46
2022-08-03T08:22:05.889Z,46
2022-08-03T08:23:58.545Z,46
2022-08-03T08:25:02.087Z,45
2022-08-03T08:26:03.095Z,46
2022-08-03T08:27:04.917Z,46
2022-08-03T08:28:34.414Z,46
2022-08-03T08:30:11.000Z,45
2022-08-03T08:31:17.846Z,44
2022-08-03T08:32:20.515Z,44
2022-08-03T08:34:02.954Z,44
2022-08-03T08:35:06.272Z,44
2022-08-03T08:36:16.166Z,44
2022-08-03T08:37:18.052Z,44
2022-08-03T08:38:19.818Z,44
2022-08-03T08:39:22.376Z,44
2022-08-03T08:40:28.762Z,44
2022-08-03T08:41:33.416Z,44
2022-08-03T08:42:36.038Z,44
2022-08-03T08:43:38.130Z,44
2022-08-03T08:44:39.683Z,42
2022-08-03T08:45:42.376Z,43
2022-08-03T08:46:44.966Z,42
2022-08-03T08:48:08.176Z,42
2022-08-03T08:49:11.225Z,43
2022-08-03T08:50:30.268Z,42
2022-08-03T08:52:03.161Z,43
2022-08-03T08:53:11.416Z,43
2022-08-03T08:54:22.660Z,43
2022-08-03T08:55:24.222Z,43
2022-08-03T08:56:26.293Z,42
2022-08-03T08:57:44.833Z,42
2022-08-03T08:58:47.079Z,42
2022-08-03T09:01:04.830Z,42
2022-08-03T09:02:06.844Z,42
2022-08-03T09:03:08.926Z,42
2022-08-03T09:04:13.604Z,42
2022-08-03T09:05:15.959Z,42
2022-08-03T09:06:17.193Z,42
2022-08-03T09:07:21.759Z,42
2022-08-03T09:08:23.659Z,41
2022-08-03T09:10:15.726Z,41
2022-08-03T09:11:17.584Z,40
2022-08-03T09:12:52.757Z,40
2022-08-03T09:13:54.392Z,40
2022-08-03T09:15:18.090Z,40
2022-08-03T09:16:19.389Z,40
2022-08-03T09:17:23.259Z,40
2022-08-03T09:18:34.401Z,39
2022-08-03T09:19:36.280Z,39
2022-08-03T09:20:37.850Z,39
2022-08-03T09:21:39.704Z,39
2022-08-03T09:22:41.251Z,39
2022-08-03T09:24:25.848Z,39
2022-08-03T09:25:42.631Z,39
2022-08-03T09:26:44.735Z,39
2022-08-03T09:27:48.903Z,39
2022-08-03T09:29:19.544Z,38
2022-08-03T09:30:36.514Z,39
2022-08-03T09:31:37.691Z,39
2022-08-03T09:32:39.242Z,39
2022-08-03T09:33:40.531Z,39
2022-08-03T09:34:41.805Z,38
2022-08-03T09:35:59.526Z,39
2022-08-03T09:37:01.091Z,38
2022-08-03T09:38:15.529Z,38
2022-08-03T09:39:17.699Z,38
2022-08-03T09:40:19.529Z,38
2022-08-03T09:41:21.249Z,38
2022-08-03T09:42:24.894Z,37
2022-08-03T09:43:26.739Z,37
2022-08-03T09:44:28.099Z,36
2022-08-03T09:45:29.939Z,36
2022-08-03T09:46:33.408Z,36
2022-08-03T09:47:34.740Z,36
2022-08-03T09:48:36.228Z,36
2022-08-03T09:49:37.529Z,36
2022-08-03T09:52:48.335Z,36
2022-08-03T09:54:01.380Z,36
2022-08-03T09:55:03.170Z,36
2022-08-03T09:56:38.633Z,36
2022-08-03T09:57:45.383Z,36
2022-08-03T09:58:49.557Z,36
2022-08-03T09:59:50.865Z,36
2022-08-03T10:01:05.843Z,36
2022-08-03T10:02:07.882Z,37
2022-08-03T10:03:09.700Z,36
2022-08-03T10:04:13.287Z,36
2022-08-03T10:05:21.253Z,35
2022-08-03T10:06:30.217Z,36
2022-08-03T10:07:32.321Z,36
2022-08-03T10:08:34.412Z,36
2022-08-03T10:09:35.962Z,36
2022-08-03T10:10:37.244Z,36
2022-08-03T10:11:45.881Z,35
2022-08-03T10:12:51.657Z,36
2022-08-03T10:14:02.602Z,35
2022-08-03T10:15:03.623Z,36
2022-08-03T10:16:27.420Z,35
2022-08-03T10:17:28.756Z,35
2022-08-03T10:18:30.028Z,35
2022-08-03T10:19:31.918Z,35
2022-08-03T10:20:33.971Z,35
2022-08-03T10:21:36.394Z,35
2022-08-03T10:22:37.732Z,35
2022-08-03T10:23:39.593Z,35
2022-08-03T10:24:41.695Z,36
2022-08-03T10:25:42.982Z,36
2022-08-03T10:26:51.225Z,36
2022-08-03T10:27:53.090Z,36
2022-08-03T10:28:54.320Z,36
2022-08-03T10:29:56.450Z,35
2022-08-03T10:30:58.794Z,35
2022-08-03T10:32:01.428Z,35
2022-08-03T10:33:03.768Z,35
2022-08-03T10:35:22.304Z,35
2022-08-03T10:36:24.177Z,36
2022-08-03T10:37:25.438Z,36
2022-08-03T10:38:27.224Z,35
2022-08-03T10:39:29.839Z,35
2022-08-03T10:40:59.542Z,35
2022-08-03T10:42:15.077Z,35
2022-08-03T10:43:18.906Z,35
2022-08-03T10:44:20.716Z,35
2022-08-03T10:45:22.951Z,35
2022-08-03T10:46:24.215Z,35
2022-08-03T10:47:26.001Z,35
2022-08-03T10:48:28.108Z,35
2022-08-03T10:49:37.068Z,35
2022-08-03T10:50:39.413Z,35
2022-08-03T10:51:43.658Z,35
2022-08-03T10:52:50.974Z,35
2022-08-03T10:54:02.283Z,35
2022-08-03T10:55:12.389Z,35
2022-08-03T10:56:50.727Z,35
2022-08-03T10:58:00.340Z,35
2022-08-03T10:59:11.276Z,35
2022-08-03T11:00:13.662Z,35
2022-08-03T11:01:16.310Z,35
2022-08-03T11:02:19.060Z,35
2022-08-03T11:03:21.120Z,35
2022-08-03T11:04:23.206Z,35
2022-08-03T11:05:25.834Z,35
2022-08-03T11:06:39.296Z,35
2022-08-03T11:07:41.948Z,35
2022-08-03T11:08:43.752Z,35
2022-08-03T11:09:45.813Z,35
2022-08-03T11:10:46.802Z,35
2022-08-03T11:11:49.934Z,35
2022-08-03T11:12:59.299Z,35
2022-08-03T11:14:01.081Z,35
2022-08-03T11:15:02.153Z,35
2022-08-03T11:16:22.386Z,34
2022-08-03T11:17:23.631Z,35
2022-08-03T11:18:28.151Z,35
2022-08-03T11:19:29.671Z,35
2022-08-03T11:20:51.056Z,35
2022-08-03T11:21:52.906Z,35
2022-08-03T11:22:54.579Z,35
2022-08-03T11:24:07.741Z,34
2022-08-03T11:25:56.593Z,34
2022-08-03T11:26:57.927Z,35
2022-08-03T11:27:58.921Z,35
2022-08-03T11:29:00.010Z,35
2022-08-03T11:30:01.255Z,35
2022-08-03T11:31:02.817Z,35
2022-08-03T11:32:04.660Z,35
2022-08-03T11:33:07.021Z,35
2022-08-03T11:34:09.085Z,34
2022-08-03T11:35:10.923Z,35
2022-08-03T11:36:12.819Z,35
2022-08-03T11:37:34.796Z,34
2022-08-03T11:38:36.641Z,34
2022-08-03T11:39:38.159Z,34
2022-08-03T11:40:39.421Z,33
2022-08-03T11:41:46.315Z,33
2022-08-03T11:42:47.578Z,34
2022-08-03T11:43:53.097Z,34
2022-08-03T11:44:55.191Z,34
2022-08-03T11:45:56.490Z,34
2022-08-03T11:46:59.117Z,34
2022-08-03T11:48:01.781Z,34
2022-08-03T11:49:12.133Z,34
2022-08-03T11:50:13.727Z,34
2022-08-03T11:51:14.702Z,34
2022-08-03T11:52:16.816Z,34
2022-08-03T11:53:18.715Z,34
2022-08-03T11:54:20.030Z,34
2022-08-03T11:55:21.963Z,34
2022-08-03T11:56:23.768Z,34
2022-08-03T11:59:23.171Z,34
2022-08-03T12:00:26.811Z,33
2022-08-03T12:01:29.166Z,34
2022-08-03T12:02:31.287Z,34
2022-08-03T12:03:36.147Z,34
2022-08-03T12:04:38.005Z,34
2022-08-03T12:05:40.470Z,34
2022-08-03T12:06:47.988Z,34
2022-08-03T12:08:07.787Z,34
2022-08-03T12:09:16.821Z,34
2022-08-03T12:10:22.533Z,34
2022-08-03T12:11:24.325Z,34
2022-08-03T12:12:27.527Z,33
2022-08-03T12:14:53.384Z,34
2022-08-03T12:15:55.283Z,35
2022-08-03T12:16:57.430Z,34
2022-08-03T12:17:59.708Z,34
2022-08-03T12:19:01.107Z,34
2022-08-03T12:20:03.332Z,34
2022-08-03T12:21:05.004Z,34
2022-08-03T12:22:06.236Z,34
2022-08-03T12:23:08.058Z,33
2022-08-03T12:24:11.203Z,34
2022-08-03T12:25:12.249Z,33
2022-08-03T12:26:21.319Z,33
2022-08-03T12:27:23.373Z,33
2022-08-03T12:28:49.839Z,33
2022-08-03T12:30:00.560Z,33
2022-08-03T12:31:02.672Z,33
2022-08-03T12:32:04.558Z,33
2022-08-03T12:33:05.620Z,33
2022-08-03T12:34:06.912Z,33
2022-08-03T12:35:08.480Z,33
2022-08-03T12:36:09.927Z,33
2022-08-03T12:37:30.493Z,33
2022-08-03T12:38:39.971Z,33
2022-08-03T12:40:20.089Z,33
2022-08-03T12:41:28.092Z,33
2022-08-03T12:42:29.646Z,33
2022-08-03T12:43:40.724Z,33
2022-08-03T12:44:42.019Z,33
2022-08-03T12:45:43.277Z,33
2022-08-03T12:46:49.334Z,33
2022-08-03T12:47:50.640Z,33
2022-08-03T12:48:51.685Z,33
2022-08-03T12:49:53.537Z,34
2022-08-03T12:50:55.051Z,34
2022-08-03T12:51:56.842Z,34
2022-08-03T12:52:59.177Z,34
2022-08-03T12:54:00.998Z,34
2022-08-03T12:55:03.360Z,34
2022-08-03T12:56:07.612Z,34
2022-08-03T12:57:08.893Z,33
2022-08-03T12:58:09.979Z,33
2022-08-03T12:59:11.020Z,33
2022-08-03T13:00:32.710Z,33
2022-08-03T13:03:50.536Z,33
2022-08-03T13:04:55.132Z,33
2022-08-03T13:05:56.646Z,33
2022-08-03T13:07:04.714Z,33
2022-08-03T13:08:16.381Z,34
2022-08-03T13:09:22.516Z,34
2022-08-03T13:10:24.369Z,34
2022-08-03T13:12:03.851Z,34
2022-08-03T13:13:09.964Z,33
2022-08-03T13:14:23.452Z,33
2022-08-03T13:15:25.786Z,32
2022-08-03T13:16:48.851Z,32
2022-08-03T13:17:51.088Z,32
2022-08-03T13:18:52.077Z,31
2022-08-03T13:19:53.079Z,31
2022-08-03T13:20:54.658Z,32
2022-08-03T13:22:08.550Z,31
2022-08-03T13:23:23.664Z,32
2022-08-03T13:24:25.002Z,31
2022-08-03T13:25:26.482Z,32
2022-08-03T13:26:28.037Z,31
2022-08-03T13:28:15.178Z,31
2022-08-03T13:29:18.450Z,31
2022-08-03T13:30:38.793Z,31
2022-08-03T13:31:52.350Z,31
2022-08-03T13:32:53.540Z,32
2022-08-03T13:33:54.811Z,31
2022-08-03T13:34:56.606Z,31
2022-08-03T13:36:01.231Z,30
2022-08-03T13:37:11.572Z,30
2022-08-03T13:38:29.172Z,31
2022-08-03T13:40:04.677Z,31
2022-08-03T13:41:07.543Z,31
2022-08-03T13:42:08.539Z,31
2022-08-03T13:43:09.549Z,31
2022-08-03T13:44:31.076Z,30
2022-08-03T13:45:32.923Z,31
2022-08-03T13:46:35.048Z,31
2022-08-03T13:47:36.303Z,31
2022-08-03T13:48:39.292Z,32
2022-08-03T13:49:41.265Z,31
2022-08-03T13:50:43.948Z,31
2022-08-03T13:51:45.867Z,31
2022-08-03T13:52:47.939Z,31
2022-08-03T13:53:49.546Z,31
2022-08-03T13:54:51.357Z,31
2022-08-03T13:55:53.141Z,31
2022-08-03T13:58:19.554Z,32
2022-08-03T13:59:20.688Z,32
2022-08-03T14:00:30.779Z,32
2022-08-03T14:01:57.349Z,32
2022-08-03T14:03:15.502Z,32
2022-08-03T14:04:24.070Z,31
2022-08-03T14:05:25.648Z,32
2022-08-03T14:06:27.761Z,32
2022-08-03T14:07:31.578Z,33
2022-08-03T14:08:33.121Z,32
2022-08-03T14:09:35.476Z,33
2022-08-03T14:10:37.655Z,33
2022-08-03T14:12:09.804Z,33
2022-08-03T14:13:27.328Z,33
2022-08-03T14:14:31.099Z,32
2022-08-03T14:15:39.380Z,33
2022-08-03T14:16:41.351Z,33
2022-08-03T14:17:50.829Z,32
2022-08-03T14:18:53.711Z,33
2022-08-03T14:20:48.884Z,32
2022-08-03T14:22:07.680Z,32
2022-08-03T14:23:09.203Z,33
2022-08-03T14:24:11.263Z,32
2022-08-03T14:25:22.235Z,33
2022-08-03T14:26:27.195Z,32
2022-08-03T14:27:29.015Z,32
2022-08-03T14:28:30.957Z,32
2022-08-03T14:29:32.816Z,32
2022-08-03T14:30:34.878Z,32
2022-08-03T14:32:14.640Z,32
2022-08-03T14:33:16.888Z,32
2022-08-03T14:34:18.949Z,32
2022-08-03T14:35:20.757Z,32
2022-08-03T14:36:22.580Z,32
2022-08-03T14:37:25.512Z,32
2022-08-03T14:38:27.345Z,32
2022-08-03T14:40:02.512Z,33
2022-08-03T14:41:03.653Z,33
2022-08-03T14:42:04.923Z,33
2022-08-03T14:43:06.193Z,33
2022-08-03T14:44:07.469Z,33
2022-08-03T14:45:21.732Z,33
2022-08-03T14:46:23.011Z,33
2022-08-03T14:47:24.279Z,33
2022-08-03T14:50:52.071Z,33
2022-08-03T14:51:55.780Z,33
2022-08-03T14:52:57.338Z,33
2022-08-03T14:53:59.382Z,33
2022-08-03T14:55:02.057Z,33
2022-08-03T14:56:12.394Z,34
2022-08-03T14:57:14.553Z,33
2022-08-03T14:58:23.830Z,33
2022-08-03T14:59:26.185Z,33
2022-08-03T15:00:29.157Z,34
2022-08-03T15:02:24.772Z,34
2022-08-03T15:03:26.686Z,34
2022-08-03T15:04:28.226Z,34
2022-08-03T15:05:29.501Z,34
2022-08-03T15:06:31.021Z,34
2022-08-03T15:07:32.065Z,35
2022-08-03T15:08:33.319Z,34
2022-08-03T15:09:35.673Z,34
2022-08-03T15:10:55.504Z,34
2022-08-03T15:12:02.976Z,35
2022-08-03T15:13:20.429Z,34
2022-08-03T15:14:38.806Z,34
2022-08-03T15:15:45.762Z,35
2022-08-03T15:16:51.117Z,35
2022-08-03T15:18:02.129Z,35
2022-08-03T15:20:36.588Z,35
2022-08-03T15:21:48.712Z,34
2022-08-03T15:22:58.050Z,34
2022-08-03T15:23:59.125Z,35
2022-08-03T15:25:00.946Z,35
2022-08-03T15:26:42.746Z,35
2022-08-03T15:28:06.031Z,35
2022-08-03T15:29:08.358Z,35
2022-08-03T15:31:05.790Z,34
2022-08-03T15:32:11.453Z,34
2022-08-03T15:33:12.599Z,34
2022-08-03T15:34:16.185Z,34
2022-08-03T15:35:17.739Z,34
2022-08-03T15:36:19.541Z,34
2022-08-03T15:37:27.732Z,34
2022-08-03T15:38:36.125Z,34
2022-08-03T15:40:02.809Z,34
2022-08-03T15:41:04.512Z,34
2022-08-03T15:42:09.788Z,34
2022-08-03T15:43:14.146Z,34
2022-08-03T15:44:15.363Z,34
2022-08-03T15:45:21.017Z,34
2022-08-03T15:46:31.233Z,34
2022-08-03T15:47:32.236Z,34
2022-08-03T15:48:34.330Z,34
2022-08-03T15:49:36.050Z,34
2022-08-03T15:50:38.161Z,34
2022-08-03T15:51:40.284Z,34
2022-08-03T15:52:44.783Z,34
2022-08-03T15:53:45.760Z,35
2022-08-03T15:54:47.311Z,35
2022-08-03T15:55:49.722Z,35
2022-08-03T15:56:52.163Z,35
2022-08-03T15:59:15.215Z,35